Time;durP1;ratioP1;P1;durP2;ratioP2;P2;SDS_P1;SDS_P2;PMS_P1;PMS_P2;Temp;Humidity;BMP_temperature;BMP_pressure;BME280_temperature;BME280_humidity;BME280_pressure;Samples;Min_cycle;Max_cycle;Signal;HPM_P1;HPM_P2
2023/04/06 00:00:30;;;;;;;10.02;7.10;;;;;;;-0.87;99.70;101749.16;1043340;28;20832;-76
2023/04/06 00:01:02;;;;;;;11.32;6.78;;;;;;;-0.83;99.97;101746.16;1043414;28;20353;-75
2023/04/06 00:01:34;;;;;;;8.70;6.07;;;;;;;-0.85;100.00;101755.09;1043601;28;20314;-75
2023/04/06 00:02:05;;;;;;;13.02;8.40;;;;;;;-0.86;100.00;101751.63;1043892;28;20390;-75
2023/04/06 00:02:37;;;;;;;9.95;6.90;;;;;;;-0.96;99.78;101756.75;1043226;28;20299;-75
2023/04/06 00:03:09;;;;;;;9.13;5.90;;;;;;;-0.91;100.00;101752.94;1043828;28;20287;-75
2023/04/06 00:03:40;;;;;;;8.20;5.93;;;;;;;-0.95;100.00;101752.38;1043921;28;20352;-76
2023/04/06 00:04:12;;;;;;;10.77;6.80;;;;;;;-0.97;100.00;101751.66;1043405;28;20306;-75
2023/04/06 00:04:44;;;;;;;9.30;6.63;;;;;;;-0.85;100.00;101752.47;1043728;28;20859;-77
2023/04/06 00:05:16;;;;;;;10.77;7.00;;;;;;;-0.75;100.00;101758.66;1040521;28;20296;-77
2023/04/06 00:05:48;;;;;;;8.38;6.22;;;;;;;-0.77;100.00;101752.72;1043100;28;20748;-77
2023/04/06 00:06:20;;;;;;;9.68;6.80;;;;;;;-0.80;100.00;101747.75;1039415;28;20304;-77
2023/04/06 00:06:51;;;;;;;11.10;7.53;;;;;;;-0.70;100.00;101741.66;1040324;28;20355;-77
2023/04/06 00:07:23;;;;;;;10.00;6.75;;;;;;;-0.67;100.00;101748.41;1041044;28;20304;-77
2023/04/06 00:07:55;;;;;;;7.30;6.20;;;;;;;-0.75;100.00;101748.22;1037209;28;20308;-77
2023/04/06 00:08:27;;;;;;;10.32;6.85;;;;;;;-0.71;100.00;101744.38;1039642;28;20386;-77
2023/04/06 00:08:59;;;;;;;25.20;7.35;;;;;;;-0.75;100.00;101745.59;1035070;28;20735;-78
2023/04/06 00:09:31;;;;;;;15.57;8.00;;;;;;;-0.89;100.00;101745.81;1036059;28;20845;-77
2023/04/06 00:10:03;;;;;;;12.70;8.68;;;;;;;-1.04;100.00;101737.41;1033631;28;20299;-77
2023/04/06 00:10:35;;;;;;;12.07;7.22;;;;;;;-1.10;100.00;101749.13;1036430;28;20289;-77
2023/04/06 00:11:09;;;;;;;11.32;7.88;;;;;;;-1.21;100.00;101746.53;1036132;28;20835;-77
2023/04/06 00:11:40;;;;;;;10.50;7.47;;;;;;;-1.28;100.00;101734.88;1036378;28;20304;-77
2023/04/06 00:12:12;;;;;;;9.68;6.90;;;;;;;-1.28;100.00;101746.19;1039680;28;20790;-77
2023/04/06 00:12:43;;;;;;;8.20;6.20;;;;;;;-1.22;100.00;101737.03;1040061;28;20304;-77
2023/04/06 00:13:15;;;;;;;12.85;7.25;;;;;;;-1.18;100.00;101735.84;1043595;28;20319;-77
2023/04/06 00:13:47;;;;;;;8.45;6.70;;;;;;;-0.99;100.00;101745.72;1044080;28;20299;-77
2023/04/06 00:14:18;;;;;;;7.20;6.35;;;;;;;-1.15;100.00;101740.81;1041324;28;20331;-77
2023/04/06 00:14:50;;;;;;;10.40;6.55;;;;;;;-1.18;100.00;101730.59;1043075;28;20368;-77
2023/04/06 00:15:22;;;;;;;10.45;6.72;;;;;;;-1.07;100.00;101738.47;1043799;28;20866;-76
2023/04/06 00:15:53;;;;;;;12.38;7.68;;;;;;;-0.91;100.00;101738.09;1037943;28;20289;-77
2023/04/06 00:16:25;;;;;;;17.88;7.40;;;;;;;-0.94;100.00;101739.16;1043249;28;20314;-77
2023/04/06 00:17:00;;;;;;;10.45;7.10;;;;;;;-0.97;100.00;101734.19;1046602;28;20561;-76
2023/04/06 00:17:31;;;;;;;11.43;6.45;;;;;;;-0.95;100.00;101737.50;1044765;28;20323;-77
2023/04/06 00:18:03;;;;;;;7.85;6.03;;;;;;;-1.02;100.00;101730.28;1045988;28;20311;-77
2023/04/06 00:18:35;;;;;;;9.77;6.82;;;;;;;-1.03;100.00;101729.44;1035273;28;20348;-77
2023/04/06 00:19:07;;;;;;;9.52;7.30;;;;;;;-1.13;100.00;101743.31;1035640;28;20786;-77
2023/04/06 00:19:39;;;;;;;9.52;7.53;;;;;;;-1.13;100.00;101731.06;1033768;28;20312;-77
2023/04/06 00:20:10;;;;;;;8.05;6.72;;;;;;;-1.19;100.00;101739.41;1040533;28;20299;-77
2023/04/06 00:20:42;;;;;;;11.30;7.90;;;;;;;-1.31;100.00;101732.50;1047735;28;20654;-77
2023/04/06 00:21:14;;;;;;;10.85;7.03;;;;;;;-1.33;100.00;101731.81;1044432;28;20295;-77
2023/04/06 00:21:46;;;;;;;9.80;7.07;;;;;;;-1.18;100.00;101741.06;1043454;28;20303;-77
2023/04/06 00:22:18;;;;;;;9.68;7.80;;;;;;;-1.13;100.00;101733.69;1039326;28;20315;-77
2023/04/06 00:22:53;;;;;;;14.00;7.75;;;;;;;-1.12;100.00;101730.13;1038288;28;20303;-76
2023/04/06 00:23:25;;;;;;;11.48;8.05;;;;;;;-1.08;100.00;101723.75;1040027;28;20863;-77
2023/04/06 00:23:57;;;;;;;12.02;10.43;;;;;;;-1.08;100.00;101723.75;1043694;28;20299;-77
2023/04/06 00:24:28;;;;;;;11.77;9.57;;;;;;;-1.03;100.00;101724.22;1043948;28;20287;-76
2023/04/06 00:25:00;;;;;;;12.38;8.95;;;;;;;-1.17;100.00;101716.59;1043540;28;20296;-76
2023/04/06 00:25:31;;;;;;;11.45;9.30;;;;;;;-1.10;100.00;101717.78;1043623;28;20322;-76
2023/04/06 00:26:03;;;;;;;11.32;9.45;;;;;;;-1.03;100.00;101724.22;1043701;28;20397;-76
2023/04/06 00:26:34;;;;;;;11.63;9.70;;;;;;;-0.93;100.00;101724.31;1047535;28;21100;-76
2023/04/06 00:27:06;;;;;;;9.93;8.02;;;;;;;-0.90;100.00;101718.84;1044232;28;20291;-77
2023/04/06 00:27:38;;;;;;;10.10;8.93;;;;;;;-1.02;100.00;101725.88;1046228;28;20313;-76
2023/04/06 00:28:09;;;;;;;10.02;8.52;;;;;;;-1.07;100.00;101717.56;1043792;28;20797;-77
2023/04/06 00:28:41;;;;;;;10.23;9.05;;;;;;;-1.14;100.00;101718.97;1039365;28;20304;-77
2023/04/06 00:29:12;;;;;;;13.13;9.63;;;;;;;-1.17;100.00;101716.59;1039738;28;20334;-76
2023/04/06 00:29:45;;;;;;;12.20;9.32;;;;;;;-1.22;100.00;101713.50;1044102;28;20295;-77
2023/04/06 00:30:17;;;;;;;15.82;9.32;;;;;;;-1.18;100.00;101717.53;1047383;28;20974;-76
2023/04/06 00:30:50;;;;;;;9.60;8.43;;;;;;;-1.11;100.00;101716.09;1040291;28;20409;-74
2023/04/06 00:31:21;;;;;;;12.52;9.32;;;;;;;-1.12;100.00;101711.81;1039483;28;20296;-75
2023/04/06 00:31:53;;;;;;;11.02;9.05;;;;;;;-1.17;100.00;101710.53;1043368;28;20311;-73
2023/04/06 00:32:24;;;;;;;14.32;9.65;;;;;;;-1.30;100.00;101711.50;1039738;28;20312;-73
2023/04/06 00:32:56;;;;;;;15.20;9.35;;;;;;;-1.37;100.00;101720.75;1039235;28;20395;-74
2023/04/06 00:33:28;;;;;;;11.00;9.27;;;;;;;-1.43;100.00;101712.53;1034905;28;20297;-76
2023/04/06 00:33:59;;;;;;;11.18;8.93;;;;;;;-1.42;100.00;101714.19;1035669;28;20308;-77
2023/04/06 00:34:31;;;;;;;10.90;9.13;;;;;;;-1.31;100.00;101717.66;1035482;28;20305;-77
2023/04/06 00:35:03;;;;;;;10.10;8.05;;;;;;;-1.31;100.00;101714.22;1036066;28;20320;-78
2023/04/06 00:35:35;;;;;;;11.15;9.40;;;;;;;-1.30;100.00;101715.88;1031843;28;20900;-78
2023/04/06 00:36:07;;;;;;;14.55;9.85;;;;;;;-1.34;100.00;101714.47;1036311;28;20307;-77
2023/04/06 00:36:39;;;;;;;12.07;8.88;;;;;;;-1.40;100.00;101710.50;1040219;28;20300;-78
2023/04/06 00:37:11;;;;;;;16.55;11.07;;;;;;;-1.32;100.00;101712.56;1039896;28;20299;-77
2023/04/06 00:37:42;;;;;;;16.75;12.05;;;;;;;-1.28;100.00;101708.75;1041845;28;20349;-78
2023/04/06 00:38:15;;;;;;;19.60;13.85;;;;;;;-1.26;100.00;101706.84;1039633;28;20469;-78
2023/04/06 00:38:46;;;;;;;14.80;11.77;;;;;;;-1.30;100.00;101705.44;1034430;28;20318;-77
2023/04/06 00:39:18;;;;;;;12.15;10.55;;;;;;;-1.35;100.00;101702.34;1035889;28;20340;-77
2023/04/06 00:39:51;;;;;;;14.95;11.27;;;;;;;-1.28;100.00;101704.34;1035344;28;20785;-77
2023/04/06 00:40:23;;;;;;;22.88;12.38;;;;;;;-1.28;100.00;101703.53;1034681;28;20323;-77
2023/04/06 00:40:55;;;;;;;17.20;12.68;;;;;;;-1.33;100.00;101701.28;1031886;28;20827;-77
2023/04/06 00:41:27;;;;;;;18.83;14.52;;;;;;;-1.37;100.00;101705.06;1035485;28;20857;-76
2023/04/06 00:42:00;;;;;;;15.27;13.20;;;;;;;-1.41;100.00;101708.00;1037529;28;20296;-76
2023/04/06 00:42:31;;;;;;;19.27;12.38;;;;;;;-1.22;100.00;101703.03;1034595;28;20308;-76
2023/04/06 00:43:03;;;;;;;20.27;15.43;;;;;;;-1.29;100.00;101701.88;1030005;28;20380;-77
2023/04/06 00:43:35;;;;;;;14.15;11.32;;;;;;;-1.42;100.00;101701.13;1031980;28;20312;-77
2023/04/06 00:44:06;;;;;;;12.90;10.48;;;;;;;-1.40;100.00;101707.06;1039568;28;20315;-77
2023/04/06 00:44:39;;;;;;;12.32;10.82;;;;;;;-1.38;100.00;101697.31;1044502;28;20306;-77
2023/04/06 00:45:10;;;;;;;17.25;10.52;;;;;;;-1.19;100.00;101696.75;1046120;28;20309;-77
2023/04/06 00:45:43;;;;;;;15.68;12.10;;;;;;;-1.27;100.00;101699.97;1040647;28;20829;-77
2023/04/06 00:46:15;;;;;;;22.02;12.13;;;;;;;-1.29;100.00;101702.69;1035136;28;20304;-77
2023/04/06 00:46:46;;;;;;;16.33;12.15;;;;;;;-1.35;100.00;101702.34;1036015;28;20296;-77
2023/04/06 00:47:18;;;;;;;16.58;12.18;;;;;;;-1.20;100.00;101697.69;1040213;28;20766;-77
2023/04/06 00:47:50;;;;;;;19.95;11.93;;;;;;;-1.45;100.00;101696.97;1039752;28;20295;-75
2023/04/06 00:48:21;;;;;;;16.77;12.25;;;;;;;-1.33;100.00;101695.22;1046024;28;20311;-75
2023/04/06 00:48:53;;;;;;;21.67;12.20;;;;;;;-1.14;100.00;101692.81;1039640;28;20873;-76
2023/04/06 00:49:25;;;;;;;16.00;13.00;;;;;;;-0.97;100.00;101699.34;1035669;28;20323;-78
2023/04/06 00:49:56;;;;;;;16.50;12.55;;;;;;;-1.06;100.00;101687.84;1039238;28;20374;-78
2023/04/06 00:50:28;;;;;;;15.43;12.10;;;;;;;-1.07;100.00;101696.66;1038114;28;20652;-78
2023/04/06 00:51:00;;;;;;;21.35;12.23;;;;;;;-1.31;100.00;101698.53;1039159;28;20686;-77
2023/04/06 00:51:32;;;;;;;16.15;10.95;;;;;;;-1.38;100.00;101707.78;1039971;28;20300;-77
2023/04/06 00:52:04;;;;;;;13.93;12.30;;;;;;;-1.35;100.00;101691.88;1047660;28;20314;-77
2023/04/06 00:52:35;;;;;;;16.95;12.75;;;;;;;-1.36;100.00;101700.69;1041296;28;20296;-77
2023/04/06 00:53:10;;;;;;;19.23;12.98;;;;;;;-1.40;100.00;101699.22;1041881;28;20642;-78
2023/04/06 00:53:41;;;;;;;15.55;11.75;;;;;;;-1.36;100.00;101690.22;1037305;28;20432;-77
2023/04/06 00:54:14;;;;;;;18.48;12.90;;;;;;;-1.37;100.00;101701.59;1031159;28;20312;-77
2023/04/06 00:54:47;;;;;;;17.65;12.63;;;;;;;-1.34;100.00;101693.56;1033215;28;20301;-78
2023/04/06 00:55:19;;;;;;;19.02;13.02;;;;;;;-1.26;100.00;101696.41;1038567;28;20514;-78
2023/04/06 00:55:51;;;;;;;17.15;12.05;;;;;;;-1.13;100.00;101691.88;1037452;28;20335;-78
2023/04/06 00:56:26;;;;;;;16.77;12.75;;;;;;;-1.01;100.00;101690.94;1039537;28;20782;-78
2023/04/06 00:56:58;;;;;;;14.60;12.32;;;;;;;-0.89;100.00;101698.75;1035064;28;20706;-78
2023/04/06 00:57:31;;;;;;;17.85;13.30;;;;;;;-0.87;100.00;101692.44;1036308;28;20296;-77
2023/04/06 00:58:03;;;;;;;13.85;11.45;;;;;;;-1.01;100.00;101685.69;1036338;28;20308;-78
2023/04/06 00:58:41;;;;;;;18.48;12.38;;;;;;;-1.32;100.00;101689.03;1032875;28;20406;-78
2023/04/06 00:59:13;;;;;;;16.75;12.68;;;;;;;-1.43;100.00;101689.00;1027211;28;20305;-77
2023/04/06 00:59:45;;;;;;;16.80;12.30;;;;;;;-1.37;100.00;101688.53;1027906;28;20345;-78
2023/04/06 01:00:18;;;;;;;15.57;11.63;;;;;;;-1.35;100.00;101689.28;1030620;28;20400;-77
2023/04/06 01:00:51;;;;;;;13.73;11.70;;;;;;;-1.41;100.00;101682.72;1036861;28;20315;-77
2023/04/06 01:01:25;;;;;;;18.75;12.68;;;;;;;-1.44;100.00;101693.41;1040311;28;20292;-77
2023/04/06 01:02:01;;;;;;;15.60;11.50;;;;;;;-1.53;100.00;101693.28;1037602;28;20821;-77
2023/04/06 01:02:44;;;;;;;;;;;;;;;-1.53;100.00;101688.91;1030351;28;20804;-77
2023/04/06 01:03:17;;;;;;;14.57;10.77;;;;;;;-1.56;100.00;101683.91;1027418;28;19922;-75
2023/04/06 01:03:49;;;;;;;15.75;10.93;;;;;;;-1.60;100.00;101688.53;1035009;28;20853;-77
2023/04/06 01:04:23;;;;;;;10.25;8.60;;;;;;;-1.59;100.00;101690.19;1027019;28;20313;-75
2023/04/06 01:04:56;;;;;;;14.70;9.30;;;;;;;-1.53;100.00;101683.66;1027598;28;20306;-77
2023/04/06 01:05:40;;;;;;;14.52;9.88;;;;;;;-1.38;100.00;101689.47;1026061;28;20311;-77
2023/04/06 01:06:17;;;;;;;10.98;9.68;;;;;;;-1.32;100.00;101683.81;1037048;28;20327;-77
2023/04/06 01:06:55;;;;;;;11.63;9.00;;;;;;;-1.28;100.00;101687.84;1038830;28;20304;-77
2023/04/06 01:07:32;;;;;;;12.57;9.23;;;;;;;-1.26;100.00;101688.56;1043235;28;20303;-77
2023/04/06 01:08:12;;;;;;;13.30;9.38;;;;;;;-1.49;100.00;101685.09;1039217;28;20454;-77
2023/04/06 01:08:44;;;;;;;15.48;8.85;;;;;;;-1.36;100.00;101679.78;1037444;28;20616;-75
2023/04/06 01:09:24;;;;;;;14.68;9.45;;;;;;;-1.34;100.00;101672.66;1034814;28;20319;-75
2023/04/06 01:09:57;;;;;;;12.13;9.25;;;;;;;-1.50;100.00;101683.44;1033226;28;20042;-75
2023/04/06 01:10:31;;;;;;;11.45;9.88;;;;;;;-1.62;100.00;101674.75;1031197;28;20336;-75
2023/04/06 01:11:10;;;;;;;14.00;9.52;;;;;;;-1.65;100.00;101674.97;1033113;28;20353;-77
2023/04/06 01:11:41;;;;;;;11.95;8.95;;;;;;;-1.60;100.00;101675.47;1036689;28;20305;-77
2023/04/06 01:12:16;;;;;;;16.88;9.57;;;;;;;-1.66;100.00;101670.69;1034257;28;20826;-77
2023/04/06 01:12:48;;;;;;;11.27;9.80;;;;;;;-1.65;100.00;101677.56;1036573;28;20789;-77
2023/04/06 01:13:28;;;;;;;12.52;9.13;;;;;;;-1.74;100.00;101670.44;1032549;28;21053;-77
2023/04/06 01:14:04;;;;;;;11.52;9.63;;;;;;;-1.73;100.00;101676.50;1034928;28;20316;-77
2023/04/06 01:15:01;;;;;;;10.48;8.75;;;;;;;-1.71;100.00;101672.81;1031328;28;20764;-77
2023/04/06 01:15:38;;;;;;;13.65;9.05;;;;;;;-1.77;100.00;101665.47;1031560;28;20310;-78
2023/04/06 01:16:12;;;;;;;10.90;9.40;;;;;;;-1.80;100.00;101670.09;1035806;28;20348;-77
2023/04/06 01:17:01;;;;;;;12.82;9.55;;;;;;;-1.74;100.00;101669.63;1030881;28;20411;-77
2023/04/06 01:17:36;;;;;;;11.73;8.88;;;;;;;-1.79;100.00;101672.59;1034965;28;20301;-77
2023/04/06 01:18:14;;;;;;;11.52;9.20;;;;;;;-1.77;100.00;101669.84;1032542;28;20332;-77
2023/04/06 01:18:52;;;;;;;14.77;9.15;;;;;;;-1.46;100.00;101665.75;1040167;28;20864;-77
2023/04/06 01:19:28;;;;;;;14.45;10.70;;;;;;;-1.37;100.00;101672.84;1039443;28;20804;-77
2023/04/06 01:20:00;;;;;;;17.77;10.70;;;;;;;-1.27;100.00;101673.81;1039274;28;20640;-77
2023/04/06 01:20:35;;;;;;;11.00;9.52;;;;;;;-1.45;100.00;101670.00;1032636;28;20301;-77
2023/04/06 01:21:08;;;;;;;15.00;11.52;;;;;;;-1.56;100.00;101669.06;1030488;28;20305;-77
2023/04/06 01:21:40;;;;;;;11.15;9.57;;;;;;;-1.47;100.00;101666.69;1032462;28;21573;-77
2023/04/06 01:22:30;;;;;;;12.63;11.15;;;;;;;-1.66;100.00;101668.06;1038622;28;20279;-77
2023/04/06 01:23:05;;;;;;;11.85;10.07;;;;;;;-1.65;100.00;101669.75;1038920;28;20519;-77
2023/04/06 01:23:37;;;;;;;13.07;10.73;;;;;;;-1.63;100.00;101667.88;1042267;28;20354;-77
2023/04/06 01:24:09;;;;;;;13.07;10.68;;;;;;;-1.53;100.00;101665.38;1036463;28;20311;-77
2023/04/06 01:25:00;;;;;;;12.73;10.48;;;;;;;-1.53;100.00;101662.78;1030204;28;20455;-77
2023/04/06 01:25:37;;;;;;;15.30;9.70;;;;;;;-1.28;100.00;101666.94;1030980;28;20535;-77
2023/04/06 01:26:12;;;;;;;15.48;10.20;;;;;;;-1.08;100.00;101668.00;1040384;28;20998;-77
2023/04/06 01:26:44;;;;;;;13.73;10.35;;;;;;;-1.15;100.00;101662.41;1040580;28;20304;-77
2023/04/06 01:27:16;;;;;;;13.82;10.60;;;;;;;-1.25;100.00;101664.09;1039350;28;20300;-77
2023/04/06 01:27:54;;;;;;;14.38;11.20;;;;;;;-1.35;100.00;101671.00;1036313;28;20305;-77
2023/04/06 01:28:28;;;;;;;10.85;9.30;;;;;;;-1.43;100.00;101660.28;1033018;28;20304;-77
2023/04/06 01:29:17;;;;;;;14.23;11.70;;;;;;;-1.43;100.00;101658.50;1038967;28;20655;-77
2023/04/06 01:29:49;;;;;;;13.82;10.75;;;;;;;-1.49;100.00;101663.38;1037132;28;20375;-77
2023/04/06 01:30:33;;;;;;;14.30;10.48;;;;;;;-1.50;100.00;101659.09;1043248;28;20299;-77
2023/04/06 01:31:11;;;;;;;20.75;11.73;;;;;;;-1.51;100.00;101665.25;1036447;28;20356;-77
2023/04/06 01:31:49;;;;;;;13.02;10.93;;;;;;;-1.41;100.00;101658.38;1038698;28;20304;-77
2023/04/06 01:32:21;;;;;;;21.02;11.60;;;;;;;-1.45;100.00;101663.00;1036071;28;20300;-77
2023/04/06 01:32:55;;;;;;;18.17;11.70;;;;;;;-1.55;100.00;101669.91;1039344;28;20430;-77
2023/04/06 01:33:38;;;;;;;14.45;11.13;;;;;;;-1.68;100.00;101667.38;1038357;28;20296;-77
2023/04/06 01:34:13;;;;;;;14.20;11.60;;;;;;;-1.70;100.00;101656.22;1041851;28;20860;-76
2023/04/06 01:34:45;;;;;;;13.77;11.98;;;;;;;-1.73;100.00;101666.88;1036929;28;20872;-76
2023/04/06 01:35:18;;;;;;;15.48;11.35;;;;;;;-1.70;100.00;101656.22;1035643;28;20492;-77
2023/04/06 01:36:01;;;;;;;11.50;9.70;;;;;;;-1.43;100.00;101657.66;1037904;28;20675;-77
2023/04/06 01:36:33;;;;;;;17.80;12.02;;;;;;;-1.51;100.00;101655.66;1036519;28;20300;-77
2023/04/06 01:37:24;;;;;;;13.40;11.23;;;;;;;-1.49;100.00;101655.53;1035046;28;20906;-77
2023/04/06 01:37:58;;;;;;;17.05;10.88;;;;;;;-1.76;100.00;101656.69;1034310;28;20140;-77
2023/04/06 01:38:34;;;;;;;15.63;10.88;;;;;;;-1.74;100.00;101657.41;1039373;28;20311;-77
2023/04/06 01:39:06;;;;;;;12.68;10.95;;;;;;;-1.50;100.00;101653.88;1041397;28;20303;-77
2023/04/06 01:39:42;;;;;;;12.70;10.88;;;;;;;-1.43;100.00;101652.44;1043259;28;20785;-76
2023/04/06 01:40:17;;;;;;;17.70;11.68;;;;;;;-1.43;100.00;101647.22;1039820;28;20308;-76
2023/04/06 01:40:53;;;;;;;16.73;11.45;;;;;;;-1.59;100.00;101653.63;1039213;28;20346;-76
2023/04/06 01:41:26;;;;;;;13.48;11.23;;;;;;;-1.57;100.00;101646.50;1034968;28;20837;-75
2023/04/06 01:41:59;;;;;;;19.25;12.10;;;;;;;-1.60;100.00;101646.75;1034408;28;20425;-76
2023/04/06 01:42:31;;;;;;;12.95;11.45;;;;;;;-1.71;100.00;101648.50;1034889;28;20297;-75
2023/04/06 01:43:03;;;;;;;12.48;11.05;;;;;;;-1.68;100.00;101654.31;1035544;28;20820;-76
2023/04/06 01:43:40;;;;;;;13.48;10.43;;;;;;;-1.69;100.00;101641.38;1036116;28;20303;-75
2023/04/06 01:44:18;;;;;;;19.77;11.95;;;;;;;-1.76;100.00;101651.47;1036540;28;20300;-76
2023/04/06 01:44:55;;;;;;;11.60;10.40;;;;;;;-1.62;100.00;101645.19;1034923;28;20845;-76
2023/04/06 01:45:27;;;;;;;14.80;10.18;;;;;;;-1.52;100.00;101653.16;1031342;28;20053;-76
2023/04/06 01:46:05;;;;;;;15.85;10.73;;;;;;;-1.59;100.00;101651.00;1036417;28;20454;-76
2023/04/06 01:46:43;;;;;;;15.20;11.82;;;;;;;-1.64;100.00;101645.31;1041852;28;20302;-76
2023/04/06 01:47:19;;;;;;;16.15;12.30;;;;;;;-1.75;100.00;101653.13;1039458;28;20300;-76
2023/04/06 01:47:50;;;;;;;16.58;11.75;;;;;;;-1.70;100.00;101640.53;1032301;28;20301;-76
2023/04/06 01:48:25;;;;;;;14.43;11.75;;;;;;;-1.69;100.00;101649.19;1034992;28;20304;-76
2023/04/06 01:48:57;;;;;;;14.05;12.10;;;;;;;-1.83;100.00;101645.03;1030673;28;21471;-75
2023/04/06 01:49:38;;;;;;;14.02;10.13;;;;;;;-1.87;100.00;101643.63;1029363;28;20312;-76
2023/04/06 01:50:10;;;;;;;14.05;11.23;;;;;;;-1.89;100.00;101646.34;1033510;28;20548;-76
2023/04/06 01:50:46;;;;;;;15.10;10.70;;;;;;;-1.90;100.00;101644.69;1035928;28;20868;-73
2023/04/06 01:51:25;;;;;;;15.80;11.30;;;;;;;-1.85;100.00;101649.56;1034372;28;20294;-76
2023/04/06 01:52:01;;;;;;;14.80;11.38;;;;;;;-1.90;100.00;101649.06;1036137;28;20464;-76
2023/04/06 01:52:34;;;;;;;12.35;10.55;;;;;;;-1.72;100.00;101646.81;1031165;28;20321;-76
2023/04/06 01:53:06;;;;;;;16.27;13.80;;;;;;;-1.86;100.00;101650.50;1036281;28;20308;-76
2023/04/06 01:53:38;;;;;;;13.05;11.13;;;;;;;-1.87;100.00;101648.84;1034486;28;20313;-76
2023/04/06 01:54:11;;;;;;;15.52;12.32;;;;;;;-1.91;100.00;101642.19;1035263;28;20382;-76
2023/04/06 01:54:58;;;;;;;15.82;12.52;;;;;;;-1.98;100.00;101648.78;1033958;28;20391;-76
2023/04/06 01:55:45;;;;;;;13.32;10.85;;;;;;;-1.82;100.00;101649.31;1036356;28;20672;-76
2023/04/06 01:56:28;;;;;;;19.02;12.75;;;;;;;-1.78;100.00;101645.53;1037903;28;20832;-77
2023/04/06 01:57:10;;;;;;;16.75;10.95;;;;;;;-1.78;100.00;101645.53;1036970;28;20316;-76
2023/04/06 01:57:56;;;;;;;13.75;10.57;;;;;;;-1.76;100.00;101643.63;1036152;28;20312;-76
2023/04/06 01:58:37;;;;;;;17.27;11.25;;;;;;;-1.87;100.00;101641.00;1036243;28;20813;-77
2023/04/06 01:59:09;;;;;;;16.33;11.57;;;;;;;-1.80;100.00;101639.59;1031663;28;20056;-76
2023/04/06 01:59:45;;;;;;;15.27;10.93;;;;;;;-1.74;100.00;101638.28;1038139;28;20309;-76
2023/04/06 02:00:24;;;;;;;12.57;11.02;;;;;;;-1.61;100.00;101646.88;1037468;28;20307;-76
2023/04/06 02:00:58;;;;;;;14.70;10.98;;;;;;;-1.66;100.00;101636.75;1038613;28;20300;-76
2023/04/06 02:01:33;;;;;;;12.80;11.13;;;;;;;-1.70;100.00;101637.94;1031609;28;20305;-77
2023/04/06 02:02:04;;;;;;;14.50;11.27;;;;;;;-1.69;100.00;101636.16;1039437;28;20300;-76
2023/04/06 02:02:38;;;;;;;17.10;11.90;;;;;;;-1.84;100.00;101646.00;1040911;28;20308;-77
2023/04/06 02:03:15;;;;;;;11.77;10.55;;;;;;;-1.78;100.00;101642.09;1039152;28;20794;-76
2023/04/06 02:03:48;;;;;;;16.88;11.07;;;;;;;-1.62;100.00;101638.19;1037846;28;20307;-76
2023/04/06 02:04:21;;;;;;;15.63;12.30;;;;;;;-1.65;100.00;101641.00;1035517;28;20289;-77
2023/04/06 02:04:58;;;;;;;14.48;12.23;;;;;;;-1.79;100.00;101635.19;1039646;28;20305;-76
2023/04/06 02:05:31;;;;;;;21.15;14.02;;;;;;;-1.91;100.00;101642.19;1041304;28;20824;-76
2023/04/06 02:06:03;;;;;;;16.42;11.70;;;;;;;-1.91;100.00;101636.97;1044095;28;20728;-76
2023/04/06 02:06:39;;;;;;;15.68;12.18;;;;;;;-1.95;100.00;101632.91;1040745;28;20292;-75
2023/04/06 02:07:12;;;;;;;15.23;12.25;;;;;;;-1.94;100.00;101637.16;1033299;28;20699;-75
2023/04/06 02:07:44;;;;;;;17.65;11.85;;;;;;;-1.91;100.00;101639.59;1032010;28;20357;-76
2023/04/06 02:08:19;;;;;;;11.93;10.45;;;;;;;-2.03;100.00;101632.66;1032903;28;20300;-75
2023/04/06 02:08:50;;;;;;;16.13;11.65;;;;;;;-2.02;100.00;101640.38;1032534;28;20300;-75
2023/04/06 02:09:23;;;;;;;14.35;11.88;;;;;;;-1.99;100.00;101636.69;1031733;28;20831;-76
2023/04/06 02:09:55;;;;;;;13.23;11.48;;;;;;;-2.02;100.00;101636.94;1028248;28;20388;-76
2023/04/06 02:10:35;;;;;;;12.70;10.68;;;;;;;-2.03;100.00;101632.66;1034954;28;20302;-75
2023/04/06 02:11:15;;;;;;;14.70;11.48;;;;;;;-1.96;100.00;101633.84;1042802;28;20411;-75
2023/04/06 02:11:51;;;;;;;13.55;12.15;;;;;;;-1.97;100.00;101632.19;1040307;28;20307;-76
2023/04/06 02:12:23;;;;;;;13.20;10.63;;;;;;;-1.94;100.00;101627.56;1039811;28;20311;-75
2023/04/06 02:12:55;;;;;;;16.20;11.32;;;;;;;-1.92;100.00;101630.06;1032858;28;20309;-75
2023/04/06 02:13:30;;;;;;;16.25;11.50;;;;;;;-1.93;100.00;101633.63;1034490;28;20905;-75
2023/04/06 02:14:02;;;;;;;13.55;12.13;;;;;;;-1.83;100.00;101626.78;1033857;28;20293;-77
2023/04/06 02:14:37;;;;;;;15.35;11.85;;;;;;;-1.90;100.00;101625.56;1037228;28;20308;-77
2023/04/06 02:15:09;;;;;;;16.48;12.95;;;;;;;-1.96;100.00;101623.41;1035469;28;20300;-76
2023/04/06 02:15:41;;;;;;;16.23;13.25;;;;;;;-1.88;100.00;101626.28;1037183;28;20779;-76
2023/04/06 02:16:15;;;;;;;16.77;13.52;;;;;;;-1.83;100.00;101632.00;1036436;28;20305;-76
2023/04/06 02:16:49;;;;;;;14.80;11.70;;;;;;;-1.85;100.00;101631.28;1045142;28;20345;-77
2023/04/06 02:17:20;;;;;;;13.10;11.10;;;;;;;-1.88;100.00;101628.91;1044098;28;20303;-76
2023/04/06 02:17:52;;;;;;;13.18;11.50;;;;;;;-1.87;100.00;101627.94;1036806;28;20296;-76
2023/04/06 02:18:24;;;;;;;13.82;10.65;;;;;;;-1.88;100.00;101621.91;1031817;28;20305;-76
2023/04/06 02:18:56;;;;;;;14.45;12.13;;;;;;;-1.96;100.00;101623.41;1035441;28;20373;-76
2023/04/06 02:19:27;;;;;;;14.13;11.75;;;;;;;-2.08;100.00;101624.34;1038115;28;20950;-77
2023/04/06 02:19:59;;;;;;;17.00;11.60;;;;;;;-2.02;100.00;101623.88;1038468;28;20308;-77
2023/04/06 02:20:30;;;;;;;14.50;12.32;;;;;;;-1.98;100.00;101625.31;1044622;28;20315;-77
2023/04/06 02:21:02;;;;;;;15.35;12.55;;;;;;;-2.01;100.00;101625.53;1045583;28;20301;-76
2023/04/06 02:21:34;;;;;;;15.20;11.65;;;;;;;-1.97;100.00;101624.34;1046296;28;20669;-76
2023/04/06 02:22:05;;;;;;;13.75;11.70;;;;;;;-1.87;100.00;101620.13;1044279;28;20829;-76
2023/04/06 02:22:37;;;;;;;14.45;11.73;;;;;;;-2.05;100.00;101627.56;1048231;28;20311;-77
2023/04/06 02:23:09;;;;;;;18.02;11.27;;;;;;;-1.97;100.00;101632.19;1048354;28;20291;-76
2023/04/06 02:23:40;;;;;;;17.95;13.10;;;;;;;-1.84;100.00;101627.72;1040319;28;20311;-77
2023/04/06 02:24:12;;;;;;;18.40;13.32;;;;;;;-1.72;100.00;101615.50;1043969;28;20299;-76
2023/04/06 02:24:43;;;;;;;14.18;12.45;;;;;;;-1.93;100.00;101620.56;1042049;28;20302;-77
2023/04/06 02:25:15;;;;;;;13.50;11.98;;;;;;;-1.99;100.00;101628.88;1039912;28;20291;-76
2023/04/06 02:25:46;;;;;;;14.30;11.50;;;;;;;-2.00;100.00;101621.97;1039549;28;20689;-76
2023/04/06 02:26:18;;;;;;;15.77;12.13;;;;;;;-1.85;100.00;101626.06;1035901;28;20483;-76
2023/04/06 02:26:50;;;;;;;16.48;12.65;;;;;;;-1.90;100.00;101625.56;1034591;28;20436;-76
2023/04/06 02:27:21;;;;;;;13.95;12.20;;;;;;;-1.96;100.00;101628.63;1031844;28;20304;-76
2023/04/06 02:27:53;;;;;;;16.58;12.70;;;;;;;-1.98;100.00;101628.75;1036430;28;20425;-76
2023/04/06 02:28:25;;;;;;;15.02;12.30;;;;;;;-2.00;100.00;101629.81;1040358;28;20678;-76
2023/04/06 02:28:56;;;;;;;14.82;12.13;;;;;;;-1.94;100.00;101621.50;1038648;28;21084;-76
2023/04/06 02:29:28;;;;;;;15.07;11.77;;;;;;;-1.77;100.00;101621.06;1040027;28;20287;-76
2023/04/06 02:30:00;;;;;;;15.95;12.93;;;;;;;-1.59;100.00;101626.69;1043506;28;20318;-76
2023/04/06 02:30:32;;;;;;;19.42;14.23;;;;;;;-1.46;100.00;101622.16;1044026;28;20390;-75
2023/04/06 02:31:04;;;;;;;17.13;13.07;;;;;;;-1.40;100.00;101624.28;1040013;28;20387;-76
2023/04/06 02:31:35;;;;;;;15.95;13.18;;;;;;;-1.35;100.00;101623.94;1035861;28;20385;-76
2023/04/06 02:32:08;;;;;;;15.02;12.95;;;;;;;-1.71;100.00;101623.22;1031762;28;20391;-75
2023/04/06 02:32:40;;;;;;;17.38;13.23;;;;;;;-1.78;100.00;101622.03;1032406;28;20305;-76
2023/04/06 02:33:12;;;;;;;16.75;13.00;;;;;;;-1.78;100.00;101622.03;1032584;28;20297;-76